Historyczne dane pomiarowe

Dodano dane terminowe – wersja testowa.

Dane z okresu 1951-2019

Wersja bazy: 1.34 [2019-03-16, lista zmian], aktualizacja planowana na 2019-04-15

Dane meteo z obszaru Polski uzyskane na podstawie danych udostępnionych przez Instytut Meteorologii i Gospodarki Wodnej – Państwowy Instytut Badawczy.

 

Wybierz Datę:    

       

TemperaturaWilgotnośćWiatrCiśnienieOpadyŚniegCzas trwania zjawisk
 Stacja t tx tn tng RH VA  wxwx mslp ppp RRR   cm mm wxwxwxwxwxwxwx
1996-03-18 -1.3 2.5 -3.7- 70.5 4.0 1.0 1.9 0.0 0.0- 796.7 0.0 0.0 0.0116- 9.5--- 0.3- 7.0-
1996-03-19 -4.6 -0.9 -6.7- 54.5 2.4 0.0 4.0 0.0 0.0- 795.2 0.0 0.0 0.0111- 11.1-------
1996-03-20 -5.4 -2.8 -7.5- 60.6 2.4 0.8 3.0 0.0 0.0- 791.1 0.0 0.0 0.0108 4.1 9.2----- 3.0-
1996-03-21 -8.1 -5.3-10.2- 76.5 2.6 3.6 1.6 0.0 0.0- 793.4 0.3 0.3 0.0107- 3.9- 3.1- 2.0---
1996-03-22 -7.8 -5.2-10.4- 84.6 2.9 6.5 1.4 0.0 0.0- 795.2 0.5 0.5 0.0106- 0.5- 12.9- 4.0- 6.0-
1996-03-23 -7.0 -4.8 -9.4- 81.0 2.9 6.8 1.6 0.0 0.0- 798.4 0.0 0.0 0.0105- 2.4- 4.7- 0.5---
1996-03-24 -6.1 -4.5 -8.2- 93.9 3.7 7.1 8.8 8.9 0.0- 797.3 5.8 3.7 2.1104- 0.0- 12.1- 19.8---
1996-03-25 -6.3 -3.0 -8.7- 93.4 3.6 8.0 4.8 0.0 0.0- 795.8 1.5 1.5 0.0106 4.3 0.0 1.4 13.4- 21.1---
1996-03-26 -7.2 -3.5 -9.2- 88.9 3.2 3.4 7.5 13.7 0.0- 792.5 2.7 0.0 2.7107- 10.5- 3.5- 7.8---
1996-03-27 -7.4 -3.0-12.4- 94.0 3.4 8.0 9.3 14.2 0.0- 787.6 7.4 6.2 1.2108- 0.0- 21.3- 21.6---
1996-03-28-12.6 -8.2-15.7- 76.9 1.8 1.3 6.4 8.2 0.0- 788.4 0.0 0.0 0.0105- 11.8-------
1996-03-29-10.0 -6.1-13.3- 59.5 1.7 5.3 2.8 0.0 0.0- 785.1 0.2 0.0 0.2103- 6.7- 2.6- 1.7---
1996-03-30-10.4 -8.0-12.3- 84.0 2.3 6.1 3.8 0.0 0.0- 784.4 3.4 0.4 3.0102- 3.2- 6.3-----
1996-03-31-11.0 -8.0-13.1- 89.1 2.4 7.8 2.5 0.0 0.0- 784.6 15.6 7.8 7.8109 3.2 0.0- 21.9- 21.8---
1996-04-01-12.3-10.4-15.5- 88.3 2.1 6.1 5.5 1.0 0.0- 786.7 8.2 1.1 7.1130- 7.0- 15.5- 13.7---
1996-04-02 -5.7 -4.1-11.6- 94.3 3.8 8.0 8.0 3.6 0.0- 788.8 11.3 5.4 5.9138- 0.0- 24.0- 24.0---
1996-04-03 -1.6 -0.1 -4.9- 98.4 5.4 8.0 6.3 0.0 0.0- 793.4 6.0 4.3 1.7143- 0.0- 13.4- 23.5---
1996-04-04 0.6 2.9 -0.9- 89.6 5.7 7.4 3.5 0.0 0.0- 798.5 0.4 0.4 0.0140 3.1 0.0- 5.0- 8.3---
1996-04-05 3.0 7.5 0.7- 55.4 4.2 5.6 3.0 0.0 0.0- 799.6 0.0 0.0 0.0138 4.1 9.0-------
1996-04-06 3.5 5.9 1.1- 18.6 1.5 2.1 2.6 0.0 0.0- 799.3 0.0 0.0 0.0120 3.5 12.5-------
1996-04-07 1.8 4.3 -0.5- 34.5 2.4 0.5 3.3 0.0 0.0- 800.7 0.0 0.0 0.0110 3.2 12.1-------
1996-04-08 -0.9 2.1 -3.1- 64.4 3.7 0.9 2.5 0.0 0.0- 801.9 0.0 0.0 0.0108 3.9 12.5-------
1996-04-09 -3.7 -0.5 -5.8- 84.4 3.9 3.9 3.6 0.0 0.0- 799.4 0.0 0.0 0.0104- 5.7- 1.7- 3.5- 4.0-
1996-04-10 -6.0 -3.6 -7.9- 93.6 3.7 7.0 3.1 0.0 0.0- 795.7 0.0 0.0 0.0102 3.9 0.0- 0.5- 18.2---
1996-04-11 -4.9 -1.6 -7.8- 81.3 3.5 4.0 1.9 0.0 0.0- 791.8 0.3 0.0 0.3101- 4.5-------
1996-04-12 -6.0 -3.8 -7.7- 90.5 3.6 6.8 7.1 4.0 0.0- 788.0 3.8 3.6 0.2100- 0.0- 11.4- 18.8---
1996-04-13-12.2 -7.6-14.3- 89.0 2.2 7.5 4.0 0.0 0.0- 786.8 4.5 3.7 0.8103- 0.9- 12.8- 22.8---
1996-04-14-12.4 -7.9-15.5- 90.6 2.2 7.4 3.4 0.0 0.0- 788.0 5.1 3.7 1.4110- 1.4- 18.5- 19.6---
1996-04-15-10.9 -7.0-14.3- 91.0 2.5 7.8 5.3 0.0 0.0- 791.7 5.3 1.0 4.3116 4.1 0.1- 9.3- 18.2---
1996-04-16 -7.0 -4.8-11.9- 93.5 3.4 8.0 9.3 11.0 0.0- 792.4 17.0 10.8 6.2117- 0.0- 21.3- 24.0---
448.2 ms

 

Źródłem pochodzenia danych jest Instytut Meteorologii i Gospodarki Wodnej – Państwowy Instytut Badawczy. Dane Instytutu Meteorologii i Gospodarki Wodnej – Państwowego Instytutu Badawczego zostały przetworzone.

Dane źródłowe można odnaleźć na stronie https://dane.imgw.pl